createdAt,value
2019-02-10T00:01:05.707Z,99900.59
2019-02-10T00:05:11.167Z,99881.98
2019-02-10T00:09:16.213Z,99885.02
2019-02-10T00:13:28.392Z,99877.23
2019-02-10T00:17:33.579Z,99863.41
2019-02-10T00:21:38.646Z,99848.87
2019-02-10T00:25:43.774Z,99846.89
2019-02-10T00:29:48.749Z,99834.08
2019-02-10T00:33:53.820Z,99835.02
2019-02-10T00:37:59.159Z,99809.66
2019-02-10T00:42:04.260Z,99798.46
2019-02-10T00:46:09.377Z,99792.05
2019-02-10T00:50:15.479Z,99767.12
2019-02-10T00:54:20.551Z,99760.01
2019-02-10T00:58:25.683Z,99758.53
2019-02-10T01:02:30.821Z,99735.81
2019-02-10T01:06:41.178Z,99720.77
2019-02-10T01:10:42.697Z,99714.50
2019-02-10T01:14:47.813Z,99707.73
2019-02-10T01:19:09.384Z,99696.26
2019-02-10T01:23:14.470Z,99661.66
2019-02-10T01:27:20.540Z,99661.66
2019-02-10T01:31:25.675Z,99649.50
2019-02-10T01:35:30.734Z,99631.53
2019-02-10T01:39:35.794Z,99625.47
2019-02-10T01:43:40.894Z,99617.16
2019-02-10T01:47:45.950Z,99604.28
2019-02-10T01:51:51.023Z,99589.23
2019-02-10T01:55:56.116Z,99585.77
2019-02-10T02:00:01.142Z,99566.84
2019-02-10T02:04:06.260Z,99551.91
2019-02-10T02:08:12.757Z,99527.13
2019-02-10T02:12:17.899Z,99533.02
2019-02-10T02:16:24.239Z,99534.94
2019-02-10T02:20:29.230Z,99521.34
2019-02-10T02:24:34.303Z,99504.35
2019-02-10T02:28:40.072Z,99481.00
2019-02-10T02:32:45.169Z,99481.00
2019-02-10T02:36:50.146Z,99471.25
2019-02-10T02:40:55.191Z,99453.55
2019-02-10T02:45:00.412Z,99430.14
2019-02-10T02:49:05.431Z,99410.83
2019-02-10T02:53:11.529Z,99401.63
2019-02-10T02:57:16.856Z,99381.48
2019-02-10T03:01:22.205Z,99365.80
2019-02-10T03:05:27.407Z,99332.63
2019-02-10T03:09:34.227Z,99338.72
2019-02-10T03:13:39.354Z,99293.21
2019-02-10T03:17:44.476Z,99287.64
2019-02-10T03:21:49.477Z,99266.09
2019-02-10T03:25:54.832Z,99253.50
2019-02-10T03:29:59.802Z,99236.84
2019-02-10T03:34:04.975Z,99217.95
2019-02-10T03:38:10.048Z,99210.30
2019-02-10T03:42:15.094Z,99186.64
2019-02-10T03:46:20.153Z,99166.03
2019-02-10T03:50:25.282Z,99161.31
2019-02-10T03:54:30.429Z,99126.23
2019-02-10T03:58:35.563Z,99126.23
2019-02-10T04:02:40.711Z,99121.88
2019-02-10T04:06:45.884Z,99114.91
2019-02-10T04:10:50.986Z,99087.75
2019-02-10T04:14:56.037Z,99081.55
2019-02-10T04:19:01.052Z,99061.42
2019-02-10T04:23:09.254Z,99054.97
2019-02-10T04:27:14.301Z,99032.80
2019-02-10T04:31:19.333Z,99011.83
2019-02-10T04:35:24.353Z,98995.99
2019-02-10T04:39:29.331Z,98978.98
2019-02-10T04:43:34.392Z,98962.72
2019-02-10T04:47:39.442Z,98945.94
2019-02-10T04:51:44.821Z,98935.01
2019-02-10T04:56:11.265Z,98918.55
2019-02-10T05:00:17.964Z,98904.45
2019-02-10T05:04:23.015Z,98899.11
2019-02-10T05:08:28.015Z,98888.63
2019-02-10T05:12:33.130Z,98873.55
2019-02-10T05:16:38.245Z,98851.50
2019-02-10T05:20:43.252Z,98851.50
2019-02-10T05:24:48.292Z,98827.10
2019-02-10T05:28:54.172Z,98809.92
2019-02-10T05:32:59.169Z,98808.31
2019-02-10T05:37:04.346Z,98793.42
2019-02-10T05:41:09.393Z,98782.20
2019-02-10T05:45:17.360Z,98770.70
2019-02-10T05:49:22.399Z,98762.23
2019-02-10T05:53:29.850Z,98729.38
2019-02-10T05:57:34.974Z,98729.38
2019-02-10T06:02:04.511Z,98723.28
2019-02-10T06:06:09.597Z,98699.44
2019-02-10T06:10:14.778Z,98697.77
2019-02-10T06:14:19.804Z,98688.45
2019-02-10T06:18:24.844Z,98658.40
2019-02-10T06:22:29.888Z,98650.86
2019-02-10T06:26:34.959Z,98635.83
2019-02-10T06:30:40.034Z,98620.17
2019-02-10T06:34:45.176Z,98603.23
2019-02-10T06:38:50.602Z,98590.56
2019-02-10T06:42:55.655Z,98558.75
2019-02-10T06:47:00.696Z,98566.02
2019-02-10T06:51:05.776Z,98547.47
2019-02-10T06:55:12.358Z,98539.48
2019-02-10T06:59:29.563Z,98542.95
2019-02-10T07:03:48.421Z,98522.58
2019-02-10T07:07:53.829Z,98526.75
2019-02-10T07:11:58.942Z,98509.03
2019-02-10T07:16:35.328Z,98522.81
2019-02-10T07:20:43.774Z,98536.84
2019-02-10T07:25:02.927Z,98518.14
2019-02-10T07:29:59.820Z,98499.70
2019-02-10T07:34:48.021Z,98490.06
2019-02-10T07:39:28.315Z,98504.16
2019-02-10T07:44:07.898Z,98490.36
2019-02-10T07:48:58.570Z,98496.88
2019-02-10T07:53:13.185Z,98485.72
2019-02-10T07:57:48.150Z,98485.72
2019-02-10T08:02:25.350Z,98467.69
2019-02-10T08:06:39.370Z,98455.35
2019-02-10T08:11:06.440Z,98455.08
2019-02-10T08:15:47.796Z,98460.20
2019-02-10T08:20:31.107Z,98429.16
2019-02-10T08:24:54.408Z,98441.55
2019-02-10T08:29:28.367Z,98387.90
2019-02-10T08:34:04.064Z,98418.48
2019-02-10T08:38:30.314Z,98399.36
2019-02-10T08:43:14.022Z,98397.52
2019-02-10T08:47:42.012Z,98404.09
2019-02-10T08:52:19.063Z,98390.39
2019-02-10T08:56:24.191Z,98395.71
2019-02-10T09:00:29.298Z,98452.03
2019-02-10T09:04:34.421Z,98403.28
2019-02-10T09:08:39.550Z,98394.77
2019-02-10T09:12:44.610Z,98402.81
2019-02-10T09:16:50.676Z,98380.25
2019-02-10T09:20:55.758Z,98374.08
2019-02-10T09:25:01.009Z,98397.42
2019-02-10T09:29:06.094Z,98366.91
2019-02-10T09:33:12.312Z,98391.14
2019-02-10T09:37:17.440Z,98368.72
2019-02-10T09:41:22.529Z,98372.73
2019-02-10T09:45:27.568Z,98343.31
2019-02-10T09:49:32.677Z,98355.31
2019-02-10T09:53:37.746Z,98348.88
2019-02-10T09:57:42.794Z,98354.73
2019-02-10T10:01:47.863Z,98329.74
2019-02-10T10:05:52.980Z,98370.34
2019-02-10T10:09:58.091Z,98379.52
2019-02-10T10:14:03.365Z,98369.64
2019-02-10T10:18:08.540Z,98348.95
2019-02-10T10:22:13.685Z,98357.54
2019-02-10T10:26:19.619Z,98335.50
2019-02-10T10:30:24.797Z,98348.30
2019-02-10T10:34:30.952Z,98357.37
2019-02-10T10:38:36.097Z,98358.05
2019-02-10T10:42:41.223Z,98346.02
2019-02-10T10:46:46.259Z,98364.01
2019-02-10T10:50:51.270Z,98362.20
2019-02-10T10:54:56.445Z,98362.20
2019-02-10T10:59:01.655Z,98365.67
2019-02-10T11:03:06.773Z,98382.48
2019-02-10T11:07:11.786Z,98373.70
2019-02-10T11:11:16.824Z,98366.88
2019-02-10T11:15:22.007Z,98373.59
2019-02-10T11:19:28.649Z,98364.73
2019-02-10T11:23:33.845Z,98377.19
2019-02-10T11:27:42.316Z,98365.52
2019-02-10T11:31:47.450Z,98361.37
2019-02-10T11:35:52.560Z,98344.13
2019-02-10T11:39:57.630Z,98374.62
2019-02-10T11:44:02.813Z,98372.54
2019-02-10T11:48:07.972Z,98398.13
2019-02-10T11:52:12.949Z,98381.73
2019-02-10T11:56:18.058Z,98385.13
2019-02-10T12:00:23.118Z,98382.73
2019-02-10T12:04:28.494Z,98381.44
2019-02-10T12:08:35.830Z,98387.22
2019-02-10T12:12:40.412Z,98381.61
2019-02-10T12:16:45.530Z,98386.61
2019-02-10T12:20:50.587Z,98402.71
2019-02-10T12:24:55.778Z,98377.94
2019-02-10T12:29:01.110Z,98382.11
2019-02-10T12:33:06.154Z,98382.11
2019-02-10T12:37:12.225Z,98398.55
2019-02-10T12:41:18.325Z,98397.47
2019-02-10T12:45:23.785Z,98387.70
2019-02-10T12:49:30.343Z,98388.80
2019-02-10T12:53:35.362Z,98388.80
2019-02-10T12:57:40.559Z,98383.73
2019-02-10T13:01:45.633Z,98391.38
2019-02-10T13:05:50.781Z,98384.73
2019-02-10T13:09:56.731Z,98370.21
2019-02-10T13:14:01.808Z,98367.26
2019-02-10T13:18:06.833Z,98367.26
2019-02-10T13:22:11.924Z,98380.41
2019-02-10T13:26:16.999Z,98383.83
2019-02-10T13:30:22.236Z,98382.27
2019-02-10T13:34:27.606Z,98375.63
2019-02-10T13:38:33.464Z,98390.41
2019-02-10T13:42:38.672Z,98356.49
2019-02-10T13:46:43.700Z,98366.98
2019-02-10T13:50:48.891Z,98377.85
2019-02-10T13:54:54.126Z,98379.52
2019-02-10T13:58:59.237Z,98371.63
2019-02-10T14:03:04.397Z,98369.37
2019-02-10T14:07:10.204Z,98388.19
2019-02-10T14:11:15.283Z,98384.20
2019-02-10T14:15:20.360Z,98387.09
2019-02-10T14:19:25.389Z,98385.02
2019-02-10T14:23:30.475Z,98382.73
2019-02-10T14:27:35.565Z,98386.63
2019-02-10T14:31:40.692Z,98392.30
2019-02-10T14:35:45.776Z,98399.30
2019-02-10T14:39:51.021Z,98394.20
2019-02-10T14:43:56.119Z,98414.24
2019-02-10T14:48:01.288Z,98390.75
2019-02-10T14:52:06.494Z,98407.55
2019-02-10T14:56:11.633Z,98397.77
2019-02-10T15:00:19.704Z,98411.00
2019-02-10T15:04:25.033Z,98408.95
2019-02-10T15:08:30.089Z,98437.57
2019-02-10T15:12:35.217Z,98438.30
2019-02-10T15:16:40.429Z,98434.61
2019-02-10T15:20:45.635Z,98446.02
2019-02-10T15:24:50.658Z,98447.09
2019-02-10T15:28:55.790Z,98433.73
2019-02-10T15:33:00.775Z,98445.66
2019-02-10T15:37:09.396Z,98445.66
2019-02-10T15:41:14.422Z,98450.45
2019-02-10T15:45:19.568Z,98450.69
2019-02-10T15:49:24.593Z,98462.37
2019-02-10T15:53:29.892Z,98475.12
2019-02-10T15:57:35.036Z,98478.79
2019-02-10T16:01:40.451Z,98490.23
2019-02-10T16:05:45.645Z,98531.44
2019-02-10T16:09:50.724Z,98524.50
2019-02-10T16:13:55.833Z,98503.19
2019-02-10T16:18:00.959Z,98515.09
2019-02-10T16:22:06.078Z,98513.58
2019-02-10T16:26:11.196Z,98528.58
2019-02-10T16:30:16.181Z,98516.91
2019-02-10T16:34:21.423Z,98526.17
2019-02-10T16:38:26.491Z,98537.84
2019-02-10T16:42:31.576Z,98564.10
2019-02-10T16:46:36.678Z,98574.20
2019-02-10T16:50:41.705Z,98563.85
2019-02-10T16:54:46.828Z,98559.02
2019-02-10T16:58:52.090Z,98569.23
2019-02-10T17:02:57.295Z,98594.80
2019-02-10T17:07:02.456Z,98590.36
2019-02-10T17:11:14.252Z,98644.41
2019-02-10T17:15:14.430Z,98633.16
2019-02-10T17:19:19.530Z,98616.83
2019-02-10T17:23:24.843Z,98620.45
2019-02-10T17:27:30.061Z,98642.91
2019-02-10T17:31:35.587Z,98643.14
2019-02-10T17:35:42.524Z,98685.70
2019-02-10T17:39:48.740Z,98663.96
2019-02-10T17:43:53.837Z,98677.86
2019-02-10T17:47:58.901Z,98678.62
2019-02-10T17:52:04.074Z,98722.28
2019-02-10T17:56:10.060Z,98722.28
2019-02-10T18:00:15.920Z,98730.06
2019-02-10T18:04:21.003Z,98721.30
2019-02-10T18:08:26.065Z,98735.08
2019-02-10T18:12:31.151Z,98765.05
2019-02-10T18:16:58.730Z,98771.77
2019-02-10T18:21:23.510Z,98780.19
2019-02-10T18:25:45.965Z,98781.03
2019-02-10T18:30:00.943Z,98806.53
2019-02-10T18:34:25.071Z,98802.40
2019-02-10T18:38:38.864Z,98827.50
2019-02-10T18:42:53.813Z,98858.47
2019-02-10T18:47:13.612Z,98854.30
2019-02-10T18:51:37.930Z,98851.37
2019-02-10T18:56:02.005Z,98869.03
2019-02-10T19:00:45.527Z,98888.37
2019-02-10T19:05:27.652Z,98879.05
2019-02-10T19:09:50.638Z,98892.59
2019-02-10T19:14:02.378Z,98917.72
2019-02-10T19:18:22.401Z,98926.86
2019-02-10T19:22:45.089Z,98947.29
2019-02-10T19:27:09.135Z,98957.39
2019-02-10T19:31:39.333Z,98968.23
2019-02-10T19:36:09.694Z,99021.20
2019-02-10T19:40:43.021Z,99004.02
2019-02-10T19:44:57.010Z,99033.11
2019-02-10T19:49:29.903Z,99080.86
2019-02-10T19:53:48.649Z,99048.55
2019-02-10T19:58:24.693Z,99091.67
2019-02-10T20:03:01.556Z,99108.70
2019-02-10T20:07:33.598Z,99122.16
2019-02-10T20:12:06.881Z,99122.43
2019-02-10T20:16:30.973Z,99116.92
2019-02-10T20:21:09.959Z,99153.63
2019-02-10T20:25:34.023Z,99154.64
2019-02-10T20:30:01.885Z,99159.48
2019-02-10T20:34:22.792Z,99207.13
2019-02-10T20:38:45.792Z,99230.98
2019-02-10T20:43:21.631Z,99231.53
2019-02-10T20:47:44.007Z,99244.28
2019-02-10T20:52:26.013Z,99254.42
2019-02-10T20:56:40.341Z,99276.30
2019-02-10T21:01:03.583Z,99294.64
2019-02-10T21:05:37.218Z,99323.63
2019-02-10T21:10:07.124Z,99337.50
2019-02-10T21:14:32.192Z,99349.24
2019-02-10T21:18:56.972Z,99372.03
2019-02-10T21:23:26.430Z,99390.20
2019-02-10T21:27:54.224Z,99399.80
2019-02-10T21:32:06.822Z,99430.87
2019-02-10T21:36:21.100Z,99432.33
2019-02-10T21:40:34.892Z,99454.11
2019-02-10T21:44:56.658Z,99459.33
2019-02-10T21:49:05.200Z,99480.11
2019-02-10T21:53:10.285Z,99499.83
2019-02-10T21:57:15.444Z,99504.66
2019-02-10T22:01:20.531Z,99513.94
2019-02-10T22:05:25.689Z,99530.36
2019-02-10T22:09:30.712Z,99553.98
2019-02-10T22:13:35.869Z,99559.73
2019-02-10T22:17:41.913Z,99564.10
2019-02-10T22:21:47.104Z,99593.24
2019-02-10T22:25:52.218Z,99614.25
2019-02-10T22:29:57.692Z,99616.86
2019-02-10T22:34:02.864Z,99624.41
2019-02-10T22:38:08.081Z,99633.88
2019-02-10T22:42:13.245Z,99641.17
2019-02-10T22:46:18.360Z,99654.98
2019-02-10T22:50:23.459Z,99670.70
2019-02-10T22:54:28.464Z,99680.39
2019-02-10T22:58:33.523Z,99681.84
2019-02-10T23:02:38.637Z,99706.08
2019-02-10T23:06:45.068Z,99719.20
2019-02-10T23:10:51.874Z,99723.03
2019-02-10T23:14:57.083Z,99732.09
2019-02-10T23:19:02.180Z,99745.91
2019-02-10T23:23:07.239Z,99758.95
2019-02-10T23:27:12.668Z,99779.05
2019-02-10T23:31:18.803Z,99793.06
2019-02-10T23:35:23.914Z,99795.21
2019-02-10T23:39:28.919Z,99819.20
2019-02-10T23:43:34.004Z,99817.91
2019-02-10T23:47:39.055Z,99841.37
2019-02-10T23:51:44.226Z,99853.23
2019-02-10T23:55:49.300Z,99873.00
2019-02-10T23:59:55.436Z,99872.67
